KCNOKOXR

Guest
Details From KCNO - Chino
To KOXR - Oxnard
Flight Number -
Tags generated
Created
Modified
Stats Distance 79 nm / 147 km
Max Altitude 2,200 ft / 671 m
Waypoints 3
Social Downloads 0
Likes 0
Share VATSIM

Download

Looking for another format? Having issues loading an existing format? Contact us
Advertisement - Login to hide

Notes

Basic altitude profile: - Ascent Rate: 2000ft/min - Ascent Speed: 160kts - Cruise Altitude: 8000ft - Cruise Speed: 200kts - Descent Rate: 900ft/min - Descent Speed: 180kts Options: - Use NATs: no - Use PACOTS: no - Use low airways: yes - Use high airways: no

Route

KCNO TIFNI KOXR

ID Type Via Altitude Latitude Longitude Leg Dist Tot Dist Heading (true) Name
O KCNO APT - 0 ft / 0 m 33.97495˚ -117.63668˚ - 0 nm - Chino
TIFNI FIX - 2,200 ft / 671 m 33.99960˚ -117.76047˚ 6 nm 6 nm 284° / 283° -
O KOXR APT - 0 ft / 0 m 34.20082˚ -119.20723˚ 72 nm 79 nm 280° / 279° Oxnard

Altitude Profile

Advertisement - Login to hide

KCNO

Details ICAO KCNO
Name Chino
Region United States
Timezone America/Los_Angeles (UTC-8.0)
Stats Elevation 650 ft / 198 m (AMSL)
Location 33.974954° -117.636684°
Runways 3
Magnetic Variation 11.855° E

METAR

KCNO 151353Z AUTO 35004KT 6SM HZ CLR 08/M06 A3014 RMK AO2 SLP204 T00781056

Decode

TAF

Not found

Departure Runways

ID Width Length Bearing (true) Bearing (mag) Surface Threshold Offset Overrun Length
03 151 ft / 46 m 4,921 ft / 1,500 m 44.28° 32.43° Asphalt 0 ft / 0 m 951 ft / 290 m
08L 151 ft / 46 m 4,849 ft / 1,478 m 89.42° 77.57° Asphalt 0 ft / 0 m 200 ft / 61 m
08R 151 ft / 46 m 6,987 ft / 2,130 m 89.42° 77.57° Asphalt 0 ft / 0 m 200 ft / 61 m
21 151 ft / 46 m 4,921 ft / 1,500 m 224.28° 212.43° Asphalt 0 ft / 0 m 351 ft / 107 m
26L 151 ft / 46 m 6,987 ft / 2,130 m 269.43° 257.58° Asphalt 0 ft / 0 m 220 ft / 67 m
26R 151 ft / 46 m 4,849 ft / 1,478 m 269.42° 257.57° Asphalt 0 ft / 0 m 0 ft / 0 m

KOXR

Details ICAO KOXR (OXR)
Name Oxnard
Region United States
Timezone America/Los_Angeles (UTC-8.0)
Stats Elevation 43 ft / 13 m (AMSL)
Location 34.200819° -119.207233°
Runways 1
Magnetic Variation 12.211° E

METAR

KOXR 151351Z AUTO 02005KT 10SM FU CLR 14/M07 A3011 RMK AO2 SLP195 T01441067 $

Decode

TAF

TAF KOXR 151158Z 1512/1612 04009KT 6SM FU SKC FM152000 27008KT 6SM FU SKC FM160900 VRB03KT P6SM BKN050

Decode

Destination Runways

ID Width Length Bearing (true) Bearing (mag) Surface Threshold Offset Overrun Length
07 98 ft / 30 m 5,953 ft / 1,815 m 90.53° 78.32° Asphalt 0 ft / 0 m 0 ft / 0 m
25 98 ft / 30 m 5,953 ft / 1,815 m 270.54° 258.33° Asphalt 1,378 ft / 420 m 0 ft / 0 m

Approach Navaids

Runway Type Ident Frequency Range Bearing (true) Bearing (mag) Slope Elevation
25 Localiser IOXR 108.70 MHz 18 nm / 33 km 270.48° 258.26° - 28 ft / 9 m (AMSL)
25 Glidescope IOXR 108.70 MHz 10 nm / 19 km 270.53° 258.32° 3.00° 41 ft / 12 m (AMSL)

Popular Alternatives